Etusivu
METAR-TAF:

METAR-TAF

Lentoasemat :

Oak Ridge, Tennessee, Yhdysvallat

Leveyspiiri: 36-01-22N, Pituuspiiri: 084-14W, korkeus merenpinnasta: 279 m

Tämänhetkinen sää

Tämä raportti tehtiin 29 minuuttia sitten, kello 22.53 UTC
Tuuli 3 kn lounaasta
Lämpötila 6°C
Kosteus 87%
Ilmanpaine 1015 hPa
Näkyvyys: 16.1 km
Muutamia pilviä 900 ft:n korkeudessa
Muutamia pilviä 3300 ft:n korkeudessa

METAR: KOQT 212253Z AUTO 22003KT 10SM FEW009 FEW033 06/04 A2996 RMK AO2 SLP153 T00610044

Aika: 18:22 (23:22 UTC)


TAF: puuttuu

Säähavainnot ja -ennusteet yli 4000 lentoasemalta (METAR- ja TAF-raportit).

Käytössä olevat sääasemat on merkitty karttaan keltaisilla ja punaisilla pisteillä.

Aseta hiiri pisteen päälle nähdäksesi sääaseman nimen.

Klikkaa sitten nähdäksesi säähavainnot ja -ennusteet.

Kartan vaihtaminen: klikkaa mustalla rastilla varustettuja vihreitä pisteitä, niin voit zoomata sisään; viivalla varustettua vihreää pistettä, niin voit zoomata ulos tai vihreitä nuolia, niin pääset viereisille kartoille.


METAR-TAF: